createdAt,value
2019-06-20T00:02:22.202Z,100334.08
2019-06-20T00:06:26.914Z,100298.17
2019-06-20T00:10:30.346Z,100327.77
2019-06-20T00:14:36.414Z,100311.95
2019-06-20T00:18:41.078Z,100269.91
2019-06-20T00:22:44.770Z,100222.34
2019-06-20T00:26:48.325Z,100263.80
2019-06-20T00:31:06.917Z,100251.77
2019-06-20T00:35:12.600Z,100223.49
2019-06-20T00:39:16.816Z,100246.23
2019-06-20T00:43:20.738Z,100228.98
2019-06-20T00:47:24.456Z,100225.55
2019-06-20T00:51:41.573Z,100232.05
2019-06-20T00:56:17.767Z,100235.34
2019-06-20T01:00:22.075Z,100224.00
2019-06-20T01:04:25.533Z,100221.25
2019-06-20T01:08:28.989Z,100210.47
2019-06-20T01:12:32.679Z,100210.48
2019-06-20T01:16:36.388Z,100233.69
2019-06-20T01:20:40.194Z,100227.70
2019-06-20T01:24:44.594Z,100241.19
2019-06-20T01:28:49.385Z,100240.02
2019-06-20T01:32:53.188Z,100228.66
2019-06-20T01:36:56.650Z,100236.93
2019-06-20T01:41:07.262Z,100246.98
2019-06-20T01:45:10.982Z,100249.41
2019-06-20T01:49:14.425Z,100250.23
2019-06-20T01:53:18.605Z,100243.58
2019-06-20T01:57:36.144Z,100241.47
2019-06-20T02:01:57.754Z,100238.06
2019-06-20T02:06:02.289Z,100238.08
2019-06-20T02:10:08.931Z,100244.55
2019-06-20T02:14:12.462Z,100242.28
2019-06-20T02:18:16.306Z,100254.29
2019-06-20T02:22:20.347Z,100247.81
2019-06-20T02:26:28.384Z,100230.75
2019-06-20T02:30:31.904Z,100240.02
2019-06-20T02:34:36.825Z,100220.70
2019-06-20T02:39:03.280Z,100207.58
2019-06-20T02:43:07.947Z,100208.56
2019-06-20T02:47:11.678Z,100207.43
2019-06-20T02:51:15.659Z,100206.96
2019-06-20T02:55:19.161Z,100219.76
2019-06-20T02:59:22.904Z,100219.63
2019-06-20T03:03:28.076Z,100215.09
2019-06-20T03:07:31.573Z,100231.62
2019-06-20T03:11:35.384Z,100236.31
2019-06-20T03:15:39.093Z,100231.93
2019-06-20T03:19:42.868Z,100238.09
2019-06-20T03:23:46.326Z,100244.26
2019-06-20T03:27:50.465Z,100259.50
2019-06-20T03:31:53.904Z,100245.58
2019-06-20T03:35:57.351Z,100257.23
2019-06-20T03:40:01.055Z,100263.56
2019-06-20T03:44:04.678Z,100265.19
2019-06-20T03:48:08.120Z,100261.91
2019-06-20T03:52:11.549Z,100267.77
2019-06-20T03:56:16.773Z,100268.23
2019-06-20T04:00:22.278Z,100267.41
2019-06-20T04:04:26.125Z,100260.70
2019-06-20T04:08:30.009Z,100261.77
2019-06-20T04:12:34.278Z,100268.25
2019-06-20T04:16:37.727Z,100263.16
2019-06-20T04:20:41.509Z,100273.59
2019-06-20T04:24:45.131Z,100266.45
2019-06-20T04:28:50.832Z,100269.30
2019-06-20T04:32:54.570Z,100270.89
2019-06-20T04:36:59.173Z,100274.11
2019-06-20T04:41:02.750Z,100288.86
2019-06-20T04:45:34.708Z,100283.44
2019-06-20T04:49:30.457Z,100291.63
2019-06-20T04:53:34.710Z,100282.91
2019-06-20T04:57:38.703Z,100285.34
2019-06-20T05:01:46.747Z,100291.44
2019-06-20T05:05:52.381Z,100294.78
2019-06-20T05:09:56.422Z,100303.95
2019-06-20T05:14:00.933Z,100306.95
2019-06-20T05:18:06.536Z,100310.25
2019-06-20T05:22:10.385Z,100319.30
2019-06-20T05:26:13.770Z,100327.15
2019-06-20T05:30:18.189Z,100334.75
2019-06-20T05:34:21.863Z,100344.01
2019-06-20T05:38:25.312Z,100345.31
2019-06-20T05:42:28.745Z,100344.37
2019-06-20T05:46:32.181Z,100348.59
2019-06-20T05:50:35.630Z,100352.55
2019-06-20T05:54:39.847Z,100359.20
2019-06-20T05:58:43.276Z,100364.77
2019-06-20T06:02:46.698Z,100355.98
2019-06-20T06:06:50.377Z,100364.17
2019-06-20T06:10:54.088Z,100370.20
2019-06-20T06:15:00.747Z,100369.23
2019-06-20T06:19:02.716Z,100372.20
2019-06-20T06:23:06.380Z,100369.10
2019-06-20T06:27:10.061Z,100372.36
2019-06-20T06:31:13.495Z,100376.61
2019-06-20T06:35:17.514Z,100381.73
2019-06-20T06:39:20.953Z,100382.56
2019-06-20T06:43:24.631Z,100383.77
2019-06-20T06:47:28.312Z,100384.38
2019-06-20T06:51:32.028Z,100383.17
2019-06-20T06:55:35.747Z,100392.25
2019-06-20T06:59:39.179Z,100391.92
2019-06-20T07:03:42.619Z,100397.91
2019-06-20T07:07:46.080Z,100394.79
2019-06-20T07:11:49.513Z,100403.76
2019-06-20T07:15:53.238Z,100405.89
2019-06-20T07:19:56.694Z,100418.62
2019-06-20T07:24:00.127Z,100421.91
2019-06-20T07:28:03.918Z,100415.53
2019-06-20T07:32:07.642Z,100420.27
2019-06-20T07:36:11.314Z,100425.72
2019-06-20T07:40:15.496Z,100430.10
2019-06-20T07:44:19.283Z,100435.44
2019-06-20T07:48:22.712Z,100437.41
2019-06-20T07:52:26.414Z,100445.30
2019-06-20T07:56:29.873Z,100444.50
2019-06-20T08:00:33.746Z,100449.63
2019-06-20T08:04:37.441Z,100440.85
2019-06-20T08:08:40.938Z,100437.05
2019-06-20T08:12:44.375Z,100438.06
2019-06-20T08:16:47.809Z,100435.18
2019-06-20T08:20:51.255Z,100432.80
2019-06-20T08:24:54.973Z,100436.77
2019-06-20T08:29:16.262Z,100444.92
2019-06-20T08:33:09.928Z,100456.06
2019-06-20T08:37:09.573Z,100457.91
2019-06-20T08:41:13.322Z,100459.34
2019-06-20T08:45:18.494Z,100470.43
2019-06-20T08:49:21.939Z,100475.88
2019-06-20T08:53:25.618Z,100478.61
2019-06-20T08:57:29.048Z,100479.98
2019-06-20T09:01:32.490Z,100482.84
2019-06-20T09:05:36.059Z,100485.52
2019-06-20T09:09:39.798Z,100486.75
2019-06-20T09:13:43.333Z,100487.30
2019-06-20T09:17:46.755Z,100482.98
2019-06-20T09:21:52.587Z,100488.91
2019-06-20T09:25:55.949Z,100490.50
2019-06-20T09:30:00.490Z,100492.88
2019-06-20T09:34:05.392Z,100498.99
2019-06-20T09:38:09.241Z,100491.05
2019-06-20T09:42:12.685Z,100495.66
2019-06-20T09:46:16.375Z,100495.01
2019-06-20T09:50:20.601Z,100485.23
2019-06-20T09:54:24.246Z,100483.95
2019-06-20T09:58:28.008Z,100483.11
2019-06-20T10:02:31.722Z,100490.97
2019-06-20T10:06:35.420Z,100491.52
2019-06-20T10:10:39.055Z,100477.79
2019-06-20T10:14:43.442Z,100484.00
2019-06-20T10:18:48.384Z,100491.00
2019-06-20T10:22:53.046Z,100506.84
2019-06-20T10:26:57.935Z,100496.78
2019-06-20T10:31:01.462Z,100511.22
2019-06-20T10:35:07.098Z,100510.89
2019-06-20T10:39:11.949Z,100510.39
2019-06-20T10:43:15.393Z,100510.91
2019-06-20T10:47:31.710Z,100511.28
2019-06-20T10:51:37.679Z,100492.44
2019-06-20T10:55:41.965Z,100484.00
2019-06-20T10:59:46.638Z,100493.42
2019-06-20T11:03:50.086Z,100494.80
2019-06-20T11:07:53.517Z,100497.40
2019-06-20T11:11:57.221Z,100508.28
2019-06-20T11:16:00.658Z,100507.63
2019-06-20T11:20:06.802Z,100506.97
2019-06-20T11:24:10.230Z,100505.09
2019-06-20T11:28:13.669Z,100508.41
2019-06-20T11:32:17.356Z,100507.20
2019-06-20T11:36:20.801Z,100505.59
2019-06-20T11:40:24.306Z,100512.49
2019-06-20T11:44:27.876Z,100509.17
2019-06-20T11:48:31.340Z,100510.83
2019-06-20T11:52:40.030Z,100512.55
2019-06-20T11:56:40.181Z,100518.89
2019-06-20T12:00:43.615Z,100528.43
2019-06-20T12:04:47.330Z,100532.97
2019-06-20T12:08:50.768Z,100536.50
2019-06-20T12:12:54.209Z,100541.45
2019-06-20T12:16:57.640Z,100547.17
2019-06-20T12:21:01.062Z,100548.58
2019-06-20T12:25:06.250Z,100542.44
2019-06-20T12:29:09.943Z,100532.05
2019-06-20T12:33:13.458Z,100528.69
2019-06-20T12:37:17.124Z,100524.15
2019-06-20T12:41:20.562Z,100523.77
2019-06-20T12:45:24.061Z,100527.75
2019-06-20T12:49:27.770Z,100526.26
2019-06-20T12:53:31.246Z,100534.06
2019-06-20T12:57:34.721Z,100531.27
2019-06-20T13:01:42.578Z,100530.33
2019-06-20T13:05:44.846Z,100527.52
2019-06-20T13:09:49.057Z,100527.64
2019-06-20T13:13:52.516Z,100528.33
2019-06-20T13:17:55.944Z,100532.62
2019-06-20T13:21:59.370Z,100524.54
2019-06-20T13:26:02.821Z,100541.98
2019-06-20T13:30:08.242Z,100535.22
2019-06-20T13:34:11.995Z,100535.16
2019-06-20T13:38:15.711Z,100524.66
2019-06-20T13:42:19.402Z,100528.84
2019-06-20T13:46:22.899Z,100524.70
2019-06-20T13:50:26.512Z,100519.75
2019-06-20T13:54:30.230Z,100513.22
2019-06-20T13:58:33.627Z,100507.64
2019-06-20T14:02:37.054Z,100502.25
2019-06-20T14:06:42.069Z,100518.45
2019-06-20T14:10:46.052Z,100513.92
2019-06-20T14:14:52.142Z,100522.03
2019-06-20T14:18:55.655Z,100515.59
2019-06-20T14:22:59.103Z,100515.56
2019-06-20T14:27:02.678Z,100517.28
2019-06-20T14:31:06.104Z,100515.76
2019-06-20T14:35:09.786Z,100511.05
2019-06-20T14:39:13.211Z,100512.89
2019-06-20T14:43:16.888Z,100508.06
2019-06-20T14:47:20.340Z,100508.08
2019-06-20T14:51:23.777Z,100506.30
2019-06-20T14:55:27.452Z,100508.42
2019-06-20T14:59:30.895Z,100513.73
2019-06-20T15:03:34.572Z,100509.02
2019-06-20T15:07:38.006Z,100515.16
2019-06-20T15:11:41.693Z,100510.22
2019-06-20T15:15:46.511Z,100508.81
2019-06-20T15:19:51.421Z,100515.55
2019-06-20T15:23:56.589Z,100510.20
2019-06-20T15:28:00.089Z,100509.45
2019-06-20T15:32:03.551Z,100524.20
2019-06-20T15:36:06.977Z,100513.92
2019-06-20T15:40:10.804Z,100511.66
2019-06-20T15:44:14.495Z,100514.17
2019-06-20T15:48:17.946Z,100516.69
2019-06-20T15:52:21.631Z,100519.38
2019-06-20T15:56:25.408Z,100525.59
2019-06-20T16:00:29.094Z,100520.16
2019-06-20T16:04:32.783Z,100526.02
2019-06-20T16:08:36.224Z,100533.09
2019-06-20T16:12:39.918Z,100530.44
2019-06-20T16:16:43.353Z,100527.27
2019-06-20T16:20:46.774Z,100522.35
2019-06-20T16:24:50.201Z,100511.50
2019-06-20T16:28:53.891Z,100534.44
2019-06-20T16:32:57.326Z,100532.98
2019-06-20T16:37:09.596Z,100541.99
2019-06-20T16:41:06.147Z,100539.27
2019-06-20T16:45:11.528Z,100549.09
2019-06-20T16:49:15.248Z,100555.02
2019-06-20T16:53:18.751Z,100555.22
2019-06-20T16:57:22.448Z,100573.80
2019-06-20T17:01:25.864Z,100570.67
2019-06-20T17:05:29.304Z,100565.45
2019-06-20T17:09:32.783Z,100555.77
2019-06-20T17:13:36.175Z,100571.09
2019-06-20T17:17:39.634Z,100565.23
2019-06-20T17:21:43.128Z,100557.57
2019-06-20T17:25:46.551Z,100556.96
2019-06-20T17:29:49.991Z,100552.80
2019-06-20T17:33:57.570Z,100556.29
2019-06-20T17:37:58.629Z,100555.80
2019-06-20T17:42:02.113Z,100565.30
2019-06-20T17:46:05.876Z,100576.79
2019-06-20T17:50:12.731Z,100582.73
2019-06-20T17:54:16.253Z,100576.87
2019-06-20T17:58:19.706Z,100609.01
2019-06-20T18:02:24.276Z,100609.92
2019-06-20T18:06:33.214Z,100612.27
2019-06-20T18:10:38.646Z,100607.59
2019-06-20T18:14:42.092Z,100613.20
2019-06-20T18:24:18.887Z,100611.57
2019-06-20T18:28:22.866Z,100613.14
2019-06-20T18:32:26.646Z,100620.57
2019-06-20T18:36:30.755Z,100631.44
2019-06-20T18:40:34.655Z,100631.96
2019-06-20T18:44:42.834Z,100640.98
2019-06-20T18:48:46.257Z,100635.20
2019-06-20T18:52:52.408Z,100632.80
2019-06-20T18:56:55.655Z,100638.27
2019-06-20T19:00:59.351Z,100641.58
2019-06-20T19:05:03.222Z,100644.13
2019-06-20T19:09:09.106Z,100643.91
2019-06-20T19:13:13.156Z,100648.13
2019-06-20T19:17:16.913Z,100649.76
2019-06-20T19:21:20.342Z,100657.27
2019-06-20T19:25:24.301Z,100656.97
2019-06-20T19:29:27.731Z,100660.62
2019-06-20T19:33:31.414Z,100667.02
2019-06-20T19:37:34.844Z,100675.70
2019-06-20T19:41:38.535Z,100671.84
2019-06-20T19:45:42.239Z,100670.88
2019-06-20T19:49:45.672Z,100678.36
2019-06-20T19:53:49.410Z,100689.84
2019-06-20T19:57:53.277Z,100703.71
2019-06-20T20:01:57.024Z,100711.57
2019-06-20T20:06:00.799Z,100714.69
2019-06-20T20:10:07.722Z,100706.27
2019-06-20T20:14:11.157Z,100708.70
2019-06-20T20:18:15.342Z,100708.07
2019-06-20T20:22:18.800Z,100713.11
2019-06-20T20:26:22.228Z,100710.98
2019-06-20T20:30:25.846Z,100714.65
2019-06-20T20:34:45.001Z,100725.16
2019-06-20T20:38:48.679Z,100725.02
2019-06-20T20:42:52.386Z,100735.45
2019-06-20T20:46:55.868Z,100741.00
2019-06-20T20:56:03.388Z,100739.23
2019-06-20T21:00:11.518Z,100741.02
2019-06-20T21:04:14.934Z,100737.39
2019-06-20T21:08:18.671Z,100739.70
2019-06-20T21:12:22.370Z,100742.81
2019-06-20T21:16:26.016Z,100746.08
2019-06-20T21:20:29.445Z,100744.75
2019-06-20T21:24:34.677Z,100756.50
2019-06-20T21:28:38.189Z,100773.61
2019-06-20T21:32:43.163Z,100791.19
2019-06-20T21:36:50.679Z,100778.49
2019-06-20T21:40:54.132Z,100778.00
2019-06-20T21:45:01.124Z,100777.52
2019-06-20T21:49:06.568Z,100782.07
2019-06-20T21:53:10.466Z,100778.50
2019-06-20T21:57:13.948Z,100784.52
2019-06-20T22:01:19.533Z,100803.39
2019-06-20T22:05:23.289Z,100824.34
2019-06-20T22:09:26.712Z,100830.73
2019-06-20T22:13:30.176Z,100825.62
2019-06-20T22:17:34.006Z,100827.37
2019-06-20T22:21:37.459Z,100832.31
2019-06-20T22:25:40.895Z,100835.81
2019-06-20T22:29:44.440Z,100838.07
2019-06-20T22:33:48.129Z,100843.58
2019-06-20T22:37:51.563Z,100848.61
2019-06-20T22:41:55.326Z,100844.95
2019-06-20T22:46:00.039Z,100855.83
2019-06-20T22:50:05.409Z,100856.98
2019-06-20T22:59:32.212Z,100866.16
2019-06-20T23:03:35.889Z,100880.75
2019-06-20T23:07:39.605Z,100873.59
2019-06-20T23:11:43.074Z,100882.66
2019-06-20T23:15:46.490Z,100891.93
2019-06-20T23:19:50.356Z,100896.39
2019-06-20T23:23:54.052Z,100890.56
2019-06-20T23:27:57.739Z,100885.70
2019-06-20T23:32:01.602Z,100888.23
2019-06-20T23:36:05.063Z,100893.41
2019-06-20T23:40:10.125Z,100890.15
2019-06-20T23:44:13.572Z,100902.44
2019-06-20T23:48:17.028Z,100903.47
2019-06-20T23:52:25.195Z,100904.77
2019-06-20T23:56:28.638Z,100895.98
